sensor_id;sensor_type;location;lat;lon;timestamp;P1;durP1;ratioP1;P2;durP2;ratioP2
66567;SDS011;53422;49.296;6.900;2023-11-18T00:00:58;16.50;;;6.70;;
66567;SDS011;53422;49.296;6.900;2023-11-18T00:03:23;13.07;;;6.57;;
66567;SDS011;53422;49.296;6.900;2023-11-18T00:05:49;15.38;;;6.38;;
66567;SDS011;53422;49.296;6.900;2023-11-18T00:08:15;12.20;;;4.88;;
66567;SDS011;53422;49.296;6.900;2023-11-18T00:10:41;16.85;;;6.95;;
66567;SDS011;53422;49.296;6.900;2023-11-18T00:13:06;15.30;;;6.30;;
66567;SDS011;53422;49.296;6.900;2023-11-18T00:15:32;10.43;;;5.65;;
66567;SDS011;53422;49.296;6.900;2023-11-18T00:18:00;9.98;;;4.80;;
66567;SDS011;53422;49.296;6.900;2023-11-18T00:20:25;10.93;;;4.22;;
66567;SDS011;53422;49.296;6.900;2023-11-18T00:22:51;13.63;;;5.57;;
66567;SDS011;53422;49.296;6.900;2023-11-18T00:25:18;11.70;;;5.10;;
66567;SDS011;53422;49.296;6.900;2023-11-18T00:27:43;15.93;;;5.65;;
66567;SDS011;53422;49.296;6.900;2023-11-18T00:30:09;11.10;;;5.18;;
66567;SDS011;53422;49.296;6.900;2023-11-18T00:32:38;12.65;;;5.75;;
66567;SDS011;53422;49.296;6.900;2023-11-18T00:35:04;11.98;;;5.60;;
66567;SDS011;53422;49.296;6.900;2023-11-18T00:37:30;12.82;;;6.53;;
66567;SDS011;53422;49.296;6.900;2023-11-18T00:39:56;12.18;;;5.95;;
66567;SDS011;53422;49.296;6.900;2023-11-18T00:42:22;11.93;;;5.13;;
66567;SDS011;53422;49.296;6.900;2023-11-18T00:44:47;11.45;;;5.72;;
66567;SDS011;53422;49.296;6.900;2023-11-18T00:47:13;14.15;;;6.28;;
66567;SDS011;53422;49.296;6.900;2023-11-18T00:49:39;12.20;;;5.18;;
66567;SDS011;53422;49.296;6.900;2023-11-18T00:52:05;11.23;;;5.53;;
66567;SDS011;53422;49.296;6.900;2023-11-18T00:54:31;13.77;;;5.15;;
66567;SDS011;53422;49.296;6.900;2023-11-18T00:56:57;12.73;;;5.78;;
66567;SDS011;53422;49.296;6.900;2023-11-18T00:59:22;12.95;;;5.13;;
66567;SDS011;53422;49.296;6.900;2023-11-18T01:01:48;11.77;;;5.22;;
66567;SDS011;53422;49.296;6.900;2023-11-18T01:04:14;10.90;;;4.85;;
66567;SDS011;53422;49.296;6.900;2023-11-18T01:06:40;12.38;;;4.55;;
66567;SDS011;53422;49.296;6.900;2023-11-18T01:09:07;11.43;;;5.10;;
66567;SDS011;53422;49.296;6.900;2023-11-18T01:11:34;12.90;;;5.60;;
66567;SDS011;53422;49.296;6.900;2023-11-18T01:14:01;8.77;;;4.63;;
66567;SDS011;53422;49.296;6.900;2023-11-18T01:16:27;12.23;;;5.68;;
66567;SDS011;53422;49.296;6.900;2023-11-18T01:18:53;13.73;;;5.72;;
66567;SDS011;53422;49.296;6.900;2023-11-18T01:21:19;11.38;;;5.53;;
66567;SDS011;53422;49.296;6.900;2023-11-18T01:23:46;11.82;;;5.95;;
66567;SDS011;53422;49.296;6.900;2023-11-18T01:26:14;12.48;;;5.53;;
66567;SDS011;53422;49.296;6.900;2023-11-18T01:28:40;12.25;;;5.60;;
66567;SDS011;53422;49.296;6.900;2023-11-18T01:31:10;13.05;;;6.15;;
66567;SDS011;53422;49.296;6.900;2023-11-18T01:33:36;13.27;;;5.55;;
66567;SDS011;53422;49.296;6.900;2023-11-18T01:36:05;14.05;;;6.05;;
66567;SDS011;53422;49.296;6.900;2023-11-18T01:38:31;13.32;;;5.45;;
66567;SDS011;53422;49.296;6.900;2023-11-18T01:40:57;14.80;;;6.85;;
66567;SDS011;53422;49.296;6.900;2023-11-18T01:43:22;11.57;;;5.07;;
66567;SDS011;53422;49.296;6.900;2023-11-18T01:45:48;12.18;;;5.57;;
66567;SDS011;53422;49.296;6.900;2023-11-18T01:48:14;14.18;;;5.25;;
66567;SDS011;53422;49.296;6.900;2023-11-18T01:50:43;15.70;;;5.80;;
66567;SDS011;53422;49.296;6.900;2023-11-18T01:53:10;12.50;;;5.53;;
66567;SDS011;53422;49.296;6.900;2023-11-18T01:55:39;13.07;;;5.78;;
66567;SDS011;53422;49.296;6.900;2023-11-18T01:58:05;12.07;;;5.88;;
66567;SDS011;53422;49.296;6.900;2023-11-18T02:00:39;14.68;;;6.55;;
66567;SDS011;53422;49.296;6.900;2023-11-18T02:03:07;13.95;;;6.20;;
66567;SDS011;53422;49.296;6.900;2023-11-18T02:05:34;13.18;;;5.55;;
66567;SDS011;53422;49.296;6.900;2023-11-18T02:08:00;13.27;;;5.55;;
66567;SDS011;53422;49.296;6.900;2023-11-18T02:10:29;14.05;;;5.22;;
66567;SDS011;53422;49.296;6.900;2023-11-18T02:15:40;13.48;;;6.00;;
66567;SDS011;53422;49.296;6.900;2023-11-18T02:18:06;12.85;;;6.15;;
66567;SDS011;53422;49.296;6.900;2023-11-18T02:20:34;12.27;;;6.25;;
66567;SDS011;53422;49.296;6.900;2023-11-18T02:23:02;11.93;;;4.90;;
66567;SDS011;53422;49.296;6.900;2023-11-18T02:25:28;13.32;;;5.05;;
66567;SDS011;53422;49.296;6.900;2023-11-18T02:27:57;13.25;;;4.95;;
66567;SDS011;53422;49.296;6.900;2023-11-18T02:30:23;12.27;;;5.30;;
66567;SDS011;53422;49.296;6.900;2023-11-18T02:33:04;12.63;;;5.32;;
66567;SDS011;53422;49.296;6.900;2023-11-18T02:35:53;13.98;;;6.03;;
66567;SDS011;53422;49.296;6.900;2023-11-18T02:38:29;12.93;;;4.95;;
66567;SDS011;53422;49.296;6.900;2023-11-18T02:40:58;13.75;;;4.80;;
66567;SDS011;53422;49.296;6.900;2023-11-18T02:43:27;13.40;;;6.05;;
66567;SDS011;53422;49.296;6.900;2023-11-18T02:45:53;11.07;;;5.10;;
66567;SDS011;53422;49.296;6.900;2023-11-18T02:48:21;9.70;;;4.65;;
66567;SDS011;53422;49.296;6.900;2023-11-18T02:50:48;13.27;;;4.80;;
66567;SDS011;53422;49.296;6.900;2023-11-18T02:53:14;11.77;;;5.15;;
66567;SDS011;53422;49.296;6.900;2023-11-18T02:55:40;14.43;;;5.53;;
66567;SDS011;53422;49.296;6.900;2023-11-18T02:58:09;13.18;;;5.28;;
66567;SDS011;53422;49.296;6.900;2023-11-18T03:00:34;10.68;;;4.40;;
66567;SDS011;53422;49.296;6.900;2023-11-18T03:03:00;10.13;;;4.32;;
66567;SDS011;53422;49.296;6.900;2023-11-18T03:05:27;12.23;;;4.65;;
66567;SDS011;53422;49.296;6.900;2023-11-18T03:07:53;9.55;;;3.90;;
66567;SDS011;53422;49.296;6.900;2023-11-18T03:10:22;11.90;;;4.85;;
66567;SDS011;53422;49.296;6.900;2023-11-18T03:12:51;11.00;;;3.97;;
66567;SDS011;53422;49.296;6.900;2023-11-18T03:15:18;10.43;;;3.22;;
66567;SDS011;53422;49.296;6.900;2023-11-18T03:17:50;8.13;;;3.25;;
66567;SDS011;53422;49.296;6.900;2023-11-18T03:20:17;9.45;;;3.33;;
66567;SDS011;53422;49.296;6.900;2023-11-18T03:22:44;11.20;;;3.67;;
66567;SDS011;53422;49.296;6.900;2023-11-18T03:25:10;8.50;;;3.65;;
66567;SDS011;53422;49.296;6.900;2023-11-18T03:27:39;9.07;;;3.60;;
66567;SDS011;53422;49.296;6.900;2023-11-18T03:30:05;8.68;;;3.30;;
66567;SDS011;53422;49.296;6.900;2023-11-18T03:32:33;7.10;;;3.38;;
66567;SDS011;53422;49.296;6.900;2023-11-18T03:35:00;8.65;;;3.45;;
66567;SDS011;53422;49.296;6.900;2023-11-18T03:37:26;10.60;;;3.95;;
66567;SDS011;53422;49.296;6.900;2023-11-18T03:39:52;11.07;;;3.80;;
66567;SDS011;53422;49.296;6.900;2023-11-18T03:42:18;11.30;;;3.83;;
66567;SDS011;53422;49.296;6.900;2023-11-18T03:44:44;8.68;;;3.53;;
66567;SDS011;53422;49.296;6.900;2023-11-18T03:47:13;9.68;;;3.88;;
66567;SDS011;53422;49.296;6.900;2023-11-18T03:49:39;11.35;;;4.15;;
66567;SDS011;53422;49.296;6.900;2023-11-18T03:52:06;11.23;;;3.70;;
66567;SDS011;53422;49.296;6.900;2023-11-18T03:54:31;11.85;;;3.40;;
66567;SDS011;53422;49.296;6.900;2023-11-18T03:56:57;10.57;;;4.15;;
66567;SDS011;53422;49.296;6.900;2023-11-18T03:59:23;10.23;;;3.58;;
66567;SDS011;53422;49.296;6.900;2023-11-18T04:01:48;11.30;;;4.03;;
66567;SDS011;53422;49.296;6.900;2023-11-18T04:04:15;10.13;;;3.80;;
66567;SDS011;53422;49.296;6.900;2023-11-18T04:06:42;9.43;;;3.30;;
66567;SDS011;53422;49.296;6.900;2023-11-18T04:09:08;12.10;;;4.28;;
66567;SDS011;53422;49.296;6.900;2023-11-18T04:11:35;10.95;;;3.75;;
66567;SDS011;53422;49.296;6.900;2023-11-18T04:14:01;12.50;;;4.07;;
66567;SDS011;53422;49.296;6.900;2023-11-18T04:16:28;11.18;;;3.45;;
66567;SDS011;53422;49.296;6.900;2023-11-18T04:18:54;12.57;;;5.25;;
66567;SDS011;53422;49.296;6.900;2023-11-18T04:21:20;10.25;;;3.08;;
66567;SDS011;53422;49.296;6.900;2023-11-18T04:23:46;7.88;;;2.92;;
66567;SDS011;53422;49.296;6.900;2023-11-18T04:26:12;9.10;;;3.40;;
66567;SDS011;53422;49.296;6.900;2023-11-18T04:28:38;9.50;;;3.42;;
66567;SDS011;53422;49.296;6.900;2023-11-18T04:31:03;14.32;;;4.50;;
66567;SDS011;53422;49.296;6.900;2023-11-18T04:33:32;10.52;;;3.60;;
66567;SDS011;53422;49.296;6.900;2023-11-18T04:35:58;9.15;;;3.45;;
66567;SDS011;53422;49.296;6.900;2023-11-18T04:38:24;8.90;;;3.30;;
66567;SDS011;53422;49.296;6.900;2023-11-18T04:40:51;10.70;;;3.88;;
66567;SDS011;53422;49.296;6.900;2023-11-18T04:43:18;11.10;;;4.35;;
66567;SDS011;53422;49.296;6.900;2023-11-18T04:45:45;9.85;;;3.60;;
66567;SDS011;53422;49.296;6.900;2023-11-18T04:48:11;9.27;;;3.75;;
66567;SDS011;53422;49.296;6.900;2023-11-18T04:50:39;9.18;;;3.25;;
66567;SDS011;53422;49.296;6.900;2023-11-18T04:53:06;15.02;;;4.55;;
66567;SDS011;53422;49.296;6.900;2023-11-18T04:55:33;10.88;;;3.83;;
66567;SDS011;53422;49.296;6.900;2023-11-18T04:58:00;10.68;;;4.43;;
66567;SDS011;53422;49.296;6.900;2023-11-18T05:00:25;10.23;;;3.83;;
66567;SDS011;53422;49.296;6.900;2023-11-18T05:02:52;13.05;;;3.92;;
66567;SDS011;53422;49.296;6.900;2023-11-18T05:05:18;14.50;;;4.07;;
66567;SDS011;53422;49.296;6.900;2023-11-18T05:07:44;12.85;;;4.82;;
66567;SDS011;53422;49.296;6.900;2023-11-18T05:10:10;11.57;;;4.03;;
66567;SDS011;53422;49.296;6.900;2023-11-18T05:12:37;9.50;;;3.65;;
66567;SDS011;53422;49.296;6.900;2023-11-18T05:15:03;17.90;;;4.55;;
66567;SDS011;53422;49.296;6.900;2023-11-18T05:17:31;12.77;;;3.78;;
66567;SDS011;53422;49.296;6.900;2023-11-18T05:19:57;10.00;;;4.47;;
66567;SDS011;53422;49.296;6.900;2023-11-18T05:22:22;10.88;;;3.97;;
66567;SDS011;53422;49.296;6.900;2023-11-18T05:24:48;12.05;;;3.97;;
66567;SDS011;53422;49.296;6.900;2023-11-18T05:27:14;11.90;;;3.70;;
66567;SDS011;53422;49.296;6.900;2023-11-18T05:29:42;8.98;;;3.45;;
66567;SDS011;53422;49.296;6.900;2023-11-18T05:32:10;11.45;;;3.88;;
66567;SDS011;53422;49.296;6.900;2023-11-18T05:34:36;10.25;;;3.95;;
66567;SDS011;53422;49.296;6.900;2023-11-18T05:37:01;14.15;;;4.80;;
66567;SDS011;53422;49.296;6.900;2023-11-18T05:39:27;10.30;;;3.45;;
66567;SDS011;53422;49.296;6.900;2023-11-18T05:41:56;11.85;;;4.35;;
66567;SDS011;53422;49.296;6.900;2023-11-18T05:44:23;13.90;;;5.07;;
66567;SDS011;53422;49.296;6.900;2023-11-18T05:46:58;12.05;;;4.18;;
66567;SDS011;53422;49.296;6.900;2023-11-18T05:49:24;13.63;;;4.78;;
66567;SDS011;53422;49.296;6.900;2023-11-18T05:51:50;18.05;;;5.05;;
66567;SDS011;53422;49.296;6.900;2023-11-18T05:54:16;12.65;;;4.40;;
66567;SDS011;53422;49.296;6.900;2023-11-18T05:56:42;12.45;;;4.30;;
66567;SDS011;53422;49.296;6.900;2023-11-18T05:59:08;15.57;;;5.07;;
66567;SDS011;53422;49.296;6.900;2023-11-18T06:01:35;13.75;;;4.50;;
66567;SDS011;53422;49.296;6.900;2023-11-18T06:04:02;13.32;;;4.22;;
66567;SDS011;53422;49.296;6.900;2023-11-18T06:06:28;12.30;;;4.05;;
66567;SDS011;53422;49.296;6.900;2023-11-18T06:11:29;9.93;;;3.92;;
66567;SDS011;53422;49.296;6.900;2023-11-18T06:13:56;10.65;;;3.90;;
66567;SDS011;53422;49.296;6.900;2023-11-18T06:16:23;13.02;;;4.20;;
66567;SDS011;53422;49.296;6.900;2023-11-18T06:18:53;8.77;;;3.95;;
66567;SDS011;53422;49.296;6.900;2023-11-18T06:21:20;14.15;;;4.60;;
66567;SDS011;53422;49.296;6.900;2023-11-18T06:23:53;11.82;;;4.35;;
66567;SDS011;53422;49.296;6.900;2023-11-18T06:26:19;11.18;;;4.13;;
66567;SDS011;53422;49.296;6.900;2023-11-18T06:28:48;9.93;;;3.88;;
66567;SDS011;53422;49.296;6.900;2023-11-18T06:31:14;10.73;;;3.67;;
66567;SDS011;53422;49.296;6.900;2023-11-18T06:33:40;10.35;;;3.88;;
66567;SDS011;53422;49.296;6.900;2023-11-18T06:36:17;11.18;;;4.15;;
66567;SDS011;53422;49.296;6.900;2023-11-18T06:38:46;14.27;;;4.93;;
66567;SDS011;53422;49.296;6.900;2023-11-18T06:41:17;12.15;;;4.43;;
66567;SDS011;53422;49.296;6.900;2023-11-18T06:43:44;13.18;;;4.60;;
66567;SDS011;53422;49.296;6.900;2023-11-18T06:46:23;11.25;;;4.05;;
66567;SDS011;53422;49.296;6.900;2023-11-18T06:48:59;9.50;;;3.33;;
66567;SDS011;53422;49.296;6.900;2023-11-18T06:51:32;10.73;;;3.45;;
66567;SDS011;53422;49.296;6.900;2023-11-18T06:54:00;10.85;;;4.25;;
66567;SDS011;53422;49.296;6.900;2023-11-18T06:56:33;10.18;;;3.50;;
66567;SDS011;53422;49.296;6.900;2023-11-18T06:59:01;8.65;;;3.35;;
66567;SDS011;53422;49.296;6.900;2023-11-18T07:01:27;9.75;;;4.03;;
66567;SDS011;53422;49.296;6.900;2023-11-18T07:03:55;11.48;;;4.22;;
66567;SDS011;53422;49.296;6.900;2023-11-18T07:06:21;8.90;;;3.67;;
66567;SDS011;53422;49.296;6.900;2023-11-18T07:08:50;8.77;;;4.03;;
66567;SDS011;53422;49.296;6.900;2023-11-18T07:11:16;11.35;;;4.32;;
66567;SDS011;53422;49.296;6.900;2023-11-18T07:13:43;10.35;;;3.70;;
66567;SDS011;53422;49.296;6.900;2023-11-18T07:16:09;9.52;;;3.70;;
66567;SDS011;53422;49.296;6.900;2023-11-18T07:18:35;10.93;;;4.45;;
66567;SDS011;53422;49.296;6.900;2023-11-18T07:21:05;8.18;;;3.65;;
66567;SDS011;53422;49.296;6.900;2023-11-18T07:23:32;9.45;;;4.22;;
66567;SDS011;53422;49.296;6.900;2023-11-18T07:25:57;9.32;;;3.90;;
66567;SDS011;53422;49.296;6.900;2023-11-18T07:28:24;10.70;;;4.00;;
66567;SDS011;53422;49.296;6.900;2023-11-18T07:30:50;6.30;;;3.20;;
66567;SDS011;53422;49.296;6.900;2023-11-18T07:33:17;10.43;;;3.90;;
66567;SDS011;53422;49.296;6.900;2023-11-18T07:35:44;7.68;;;3.25;;
66567;SDS011;53422;49.296;6.900;2023-11-18T07:38:11;8.38;;;3.28;;
66567;SDS011;53422;49.296;6.900;2023-11-18T07:40:38;7.57;;;3.53;;
66567;SDS011;53422;49.296;6.900;2023-11-18T07:43:10;11.85;;;3.83;;
66567;SDS011;53422;49.296;6.900;2023-11-18T07:45:40;5.93;;;3.17;;
66567;SDS011;53422;49.296;6.900;2023-11-18T07:48:07;6.95;;;3.20;;
66567;SDS011;53422;49.296;6.900;2023-11-18T07:50:34;5.75;;;2.90;;
66567;SDS011;53422;49.296;6.900;2023-11-18T07:53:00;6.55;;;4.10;;
66567;SDS011;53422;49.296;6.900;2023-11-18T07:55:27;6.88;;;2.40;;
66567;SDS011;53422;49.296;6.900;2023-11-18T07:57:53;7.43;;;4.10;;
66567;SDS011;53422;49.296;6.900;2023-11-18T08:00:19;8.38;;;3.47;;
66567;SDS011;53422;49.296;6.900;2023-11-18T08:02:45;7.35;;;4.10;;
66567;SDS011;53422;49.296;6.900;2023-11-18T08:05:11;6.10;;;3.03;;
66567;SDS011;53422;49.296;6.900;2023-11-18T08:07:43;6.57;;;2.78;;
66567;SDS011;53422;49.296;6.900;2023-11-18T08:10:10;9.43;;;3.33;;
66567;SDS011;53422;49.296;6.900;2023-11-18T08:12:43;8.50;;;3.03;;
66567;SDS011;53422;49.296;6.900;2023-11-18T08:15:10;7.07;;;3.05;;
66567;SDS011;53422;49.296;6.900;2023-11-18T08:17:36;8.15;;;3.20;;
66567;SDS011;53422;49.296;6.900;2023-11-18T08:20:01;9.15;;;3.40;;
66567;SDS011;53422;49.296;6.900;2023-11-18T08:22:40;7.68;;;3.33;;
66567;SDS011;53422;49.296;6.900;2023-11-18T08:25:08;6.05;;;2.85;;
66567;SDS011;53422;49.296;6.900;2023-11-18T08:27:35;6.10;;;2.92;;
66567;SDS011;53422;49.296;6.900;2023-11-18T08:30:01;9.40;;;3.25;;
66567;SDS011;53422;49.296;6.900;2023-11-18T08:32:31;8.90;;;3.05;;
66567;SDS011;53422;49.296;6.900;2023-11-18T08:34:56;8.73;;;3.53;;
66567;SDS011;53422;49.296;6.900;2023-11-18T08:37:22;6.65;;;3.42;;
66567;SDS011;53422;49.296;6.900;2023-11-18T08:39:48;6.97;;;2.70;;
66567;SDS011;53422;49.296;6.900;2023-11-18T08:42:13;6.38;;;3.33;;
66567;SDS011;53422;49.296;6.900;2023-11-18T08:44:39;6.80;;;2.92;;
66567;SDS011;53422;49.296;6.900;2023-11-18T08:47:05;5.32;;;2.83;;
66567;SDS011;53422;49.296;6.900;2023-11-18T08:49:33;6.15;;;2.92;;
66567;SDS011;53422;49.296;6.900;2023-11-18T08:51:59;6.18;;;2.70;;
66567;SDS011;53422;49.296;6.900;2023-11-18T08:54:26;7.63;;;2.90;;
66567;SDS011;53422;49.296;6.900;2023-11-18T08:57:01;7.78;;;3.28;;
66567;SDS011;53422;49.296;6.900;2023-11-18T08:59:45;5.65;;;3.30;;
66567;SDS011;53422;49.296;6.900;2023-11-18T09:02:10;6.72;;;2.90;;
66567;SDS011;53422;49.296;6.900;2023-11-18T09:04:40;8.63;;;3.30;;
66567;SDS011;53422;49.296;6.900;2023-11-18T09:07:08;6.70;;;2.33;;
66567;SDS011;53422;49.296;6.900;2023-11-18T09:09:35;5.38;;;3.03;;
66567;SDS011;53422;49.296;6.900;2023-11-18T09:12:01;5.75;;;3.05;;
66567;SDS011;53422;49.296;6.900;2023-11-18T09:14:28;5.55;;;2.83;;
66567;SDS011;53422;49.296;6.900;2023-11-18T09:16:53;7.20;;;3.45;;
66567;SDS011;53422;49.296;6.900;2023-11-18T09:19:24;5.53;;;3.38;;
66567;SDS011;53422;49.296;6.900;2023-11-18T09:21:50;7.20;;;3.47;;
66567;SDS011;53422;49.296;6.900;2023-11-18T09:24:17;8.13;;;3.78;;
66567;SDS011;53422;49.296;6.900;2023-11-18T09:26:45;8.18;;;3.38;;
66567;SDS011;53422;49.296;6.900;2023-11-18T09:29:13;6.68;;;3.60;;
66567;SDS011;53422;49.296;6.900;2023-11-18T09:31:43;5.55;;;3.03;;
66567;SDS011;53422;49.296;6.900;2023-11-18T09:34:17;6.80;;;3.35;;
66567;SDS011;53422;49.296;6.900;2023-11-18T09:36:43;7.47;;;4.40;;
66567;SDS011;53422;49.296;6.900;2023-11-18T09:39:09;10.75;;;3.53;;
66567;SDS011;53422;49.296;6.900;2023-11-18T09:41:55;7.30;;;3.53;;
66567;SDS011;53422;49.296;6.900;2023-11-18T09:44:22;6.25;;;3.35;;
66567;SDS011;53422;49.296;6.900;2023-11-18T09:46:50;5.43;;;2.65;;
66567;SDS011;53422;49.296;6.900;2023-11-18T09:49:29;8.00;;;3.50;;
66567;SDS011;53422;49.296;6.900;2023-11-18T09:52:04;5.85;;;3.22;;
66567;SDS011;53422;49.296;6.900;2023-11-18T09:54:36;7.38;;;3.85;;
66567;SDS011;53422;49.296;6.900;2023-11-18T09:57:18;10.70;;;3.70;;
66567;SDS011;53422;49.296;6.900;2023-11-18T10:02:36;7.18;;;3.72;;
66567;SDS011;53422;49.296;6.900;2023-11-18T10:05:08;2.67;;;1.90;;
66567;SDS011;53422;49.296;6.900;2023-11-18T10:07:38;6.50;;;3.70;;
66567;SDS011;53422;49.296;6.900;2023-11-18T10:10:06;7.68;;;3.85;;
66567;SDS011;53422;49.296;6.900;2023-11-18T10:12:40;6.30;;;3.05;;
66567;SDS011;53422;49.296;6.900;2023-11-18T10:15:17;3.00;;;1.65;;
66567;SDS011;53422;49.296;6.900;2023-11-18T10:17:48;8.65;;;3.67;;
66567;SDS011;53422;49.296;6.900;2023-11-18T10:23:15;11.15;;;3.55;;
66567;SDS011;53422;49.296;6.900;2023-11-18T10:28:21;3.63;;;2.13;;
66567;SDS011;53422;49.296;6.900;2023-11-18T10:30:47;8.73;;;3.40;;
66567;SDS011;53422;49.296;6.900;2023-11-18T10:33:22;6.85;;;3.42;;
66567;SDS011;53422;49.296;6.900;2023-11-18T10:35:51;6.30;;;3.70;;
66567;SDS011;53422;49.296;6.900;2023-11-18T10:38:20;7.00;;;3.25;;
66567;SDS011;53422;49.296;6.900;2023-11-18T10:40:51;3.50;;;1.08;;
66567;SDS011;53422;49.296;6.900;2023-11-18T10:43:21;6.65;;;3.08;;
66567;SDS011;53422;49.296;6.900;2023-11-18T10:46:06;5.70;;;3.35;;
66567;SDS011;53422;49.296;6.900;2023-11-18T10:48:37;5.72;;;3.03;;
66567;SDS011;53422;49.296;6.900;2023-11-18T10:51:13;6.05;;;3.97;;
66567;SDS011;53422;49.296;6.900;2023-11-18T10:53:44;5.68;;;3.75;;
66567;SDS011;53422;49.296;6.900;2023-11-18T10:56:21;7.70;;;3.78;;
66567;SDS011;53422;49.296;6.900;2023-11-18T10:59:04;7.95;;;3.92;;
66567;SDS011;53422;49.296;6.900;2023-11-18T11:01:34;7.45;;;3.85;;
66567;SDS011;53422;49.296;6.900;2023-11-18T11:04:07;6.57;;;3.80;;
66567;SDS011;53422;49.296;6.900;2023-11-18T11:06:35;5.85;;;2.97;;
66567;SDS011;53422;49.296;6.900;2023-11-18T11:09:07;7.00;;;3.80;;
66567;SDS011;53422;49.296;6.900;2023-11-18T11:11:45;7.10;;;4.10;;
66567;SDS011;53422;49.296;6.900;2023-11-18T11:14:17;6.53;;;4.03;;
66567;SDS011;53422;49.296;6.900;2023-11-18T11:16:54;6.65;;;3.72;;
66567;SDS011;53422;49.296;6.900;2023-11-18T11:19:24;6.88;;;4.20;;
66567;SDS011;53422;49.296;6.900;2023-11-18T11:22:10;6.57;;;4.05;;
66567;SDS011;53422;49.296;6.900;2023-11-18T11:27:36;6.82;;;2.72;;
66567;SDS011;53422;49.296;6.900;2023-11-18T11:30:22;33.92;;;8.02;;
66567;SDS011;53422;49.296;6.900;2023-11-18T11:35:42;47.38;;;7.15;;
66567;SDS011;53422;49.296;6.900;2023-11-18T11:38:24;7.10;;;4.05;;
66567;SDS011;53422;49.296;6.900;2023-11-18T11:40:51;5.10;;;2.63;;
66567;SDS011;53422;49.296;6.900;2023-11-18T11:45:52;2.25;;;1.85;;
66567;SDS011;53422;49.296;6.900;2023-11-18T11:48:22;3.03;;;1.73;;
66567;SDS011;53422;49.296;6.900;2023-11-18T11:51:15;5.82;;;2.30;;
66567;SDS011;53422;49.296;6.900;2023-11-18T11:54:09;5.30;;;3.10;;
66567;SDS011;53422;49.296;6.900;2023-11-18T11:56:44;5.30;;;3.33;;
66567;SDS011;53422;49.296;6.900;2023-11-18T12:02:09;5.75;;;2.75;;
66567;SDS011;53422;49.296;6.900;2023-11-18T12:04:39;6.97;;;3.45;;
66567;SDS011;53422;49.296;6.900;2023-11-18T12:07:08;5.53;;;3.22;;
66567;SDS011;53422;49.296;6.900;2023-11-18T12:09:35;6.85;;;3.65;;
66567;SDS011;53422;49.296;6.900;2023-11-18T12:12:04;7.10;;;3.53;;
66567;SDS011;53422;49.296;6.900;2023-11-18T12:14:48;6.57;;;3.35;;
66567;SDS011;53422;49.296;6.900;2023-11-18T12:17:31;5.18;;;2.40;;
66567;SDS011;53422;49.296;6.900;2023-11-18T12:23:07;8.07;;;4.07;;
66567;SDS011;53422;49.296;6.900;2023-11-18T12:25:40;6.65;;;3.40;;
66567;SDS011;53422;49.296;6.900;2023-11-18T12:28:16;5.82;;;3.90;;
66567;SDS011;53422;49.296;6.900;2023-11-18T12:30:46;6.53;;;3.22;;
66567;SDS011;53422;49.296;6.900;2023-11-18T12:41:35;8.02;;;3.95;;
66567;SDS011;53422;49.296;6.900;2023-11-18T12:49:40;6.43;;;3.67;;
66567;SDS011;53422;49.296;6.900;2023-11-18T12:52:11;7.78;;;3.80;;
66567;SDS011;53422;49.296;6.900;2023-11-18T12:54:40;7.95;;;3.65;;
66567;SDS011;53422;49.296;6.900;2023-11-18T12:57:08;6.45;;;3.88;;
66567;SDS011;53422;49.296;6.900;2023-11-18T12:59:39;9.02;;;4.40;;
66567;SDS011;53422;49.296;6.900;2023-11-18T13:02:08;6.22;;;4.30;;
66567;SDS011;53422;49.296;6.900;2023-11-18T13:04:39;7.55;;;3.22;;
66567;SDS011;53422;49.296;6.900;2023-11-18T13:07:05;7.78;;;4.10;;
66567;SDS011;53422;49.296;6.900;2023-11-18T13:12:01;6.35;;;3.45;;
66567;SDS011;53422;49.296;6.900;2023-11-18T13:14:30;8.10;;;3.03;;
66567;SDS011;53422;49.296;6.900;2023-11-18T13:17:04;7.10;;;4.35;;
66567;SDS011;53422;49.296;6.900;2023-11-18T13:19:34;7.85;;;4.00;;
66567;SDS011;53422;49.296;6.900;2023-11-18T13:22:18;7.13;;;4.03;;
66567;SDS011;53422;49.296;6.900;2023-11-18T13:24:44;5.43;;;3.58;;
66567;SDS011;53422;49.296;6.900;2023-11-18T13:27:14;7.25;;;4.57;;
66567;SDS011;53422;49.296;6.900;2023-11-18T13:29:43;2.78;;;2.13;;
66567;SDS011;53422;49.296;6.900;2023-11-18T13:32:18;4.38;;;2.65;;
66567;SDS011;53422;49.296;6.900;2023-11-18T13:34:50;4.53;;;3.00;;
66567;SDS011;53422;49.296;6.900;2023-11-18T13:37:16;5.50;;;3.55;;
66567;SDS011;53422;49.296;6.900;2023-11-18T13:39:52;3.92;;;2.50;;
66567;SDS011;53422;49.296;6.900;2023-11-18T13:42:22;6.63;;;3.35;;
66567;SDS011;53422;49.296;6.900;2023-11-18T13:44:49;4.03;;;3.53;;
66567;SDS011;53422;49.296;6.900;2023-11-18T13:47:19;5.35;;;2.85;;
66567;SDS011;53422;49.296;6.900;2023-11-18T13:49:45;6.68;;;3.55;;
66567;SDS011;53422;49.296;6.900;2023-11-18T13:52:15;4.35;;;2.13;;
66567;SDS011;53422;49.296;6.900;2023-11-18T13:54:43;4.32;;;2.90;;
66567;SDS011;53422;49.296;6.900;2023-11-18T13:57:10;3.35;;;2.08;;
66567;SDS011;53422;49.296;6.900;2023-11-18T13:59:37;4.65;;;2.55;;
66567;SDS011;53422;49.296;6.900;2023-11-18T14:02:03;5.13;;;2.20;;
66567;SDS011;53422;49.296;6.900;2023-11-18T14:04:30;2.45;;;1.85;;
66567;SDS011;53422;49.296;6.900;2023-11-18T14:07:01;3.65;;;2.15;;
66567;SDS011;53422;49.296;6.900;2023-11-18T14:09:34;3.83;;;2.40;;
66567;SDS011;53422;49.296;6.900;2023-11-18T14:12:05;6.07;;;2.30;;
66567;SDS011;53422;49.296;6.900;2023-11-18T14:14:31;3.72;;;1.05;;
66567;SDS011;53422;49.296;6.900;2023-11-18T14:16:58;4.57;;;2.80;;
66567;SDS011;53422;49.296;6.900;2023-11-18T14:19:27;3.63;;;2.30;;
66567;SDS011;53422;49.296;6.900;2023-11-18T14:21:56;6.53;;;2.45;;
66567;SDS011;53422;49.296;6.900;2023-11-18T14:24:22;6.32;;;1.67;;
66567;SDS011;53422;49.296;6.900;2023-11-18T14:26:52;1.35;;;1.15;;
66567;SDS011;53422;49.296;6.900;2023-11-18T14:29:18;6.47;;;2.42;;
66567;SDS011;53422;49.296;6.900;2023-11-18T14:31:45;4.65;;;2.53;;
66567;SDS011;53422;49.296;6.900;2023-11-18T14:34:11;6.90;;;2.47;;
66567;SDS011;53422;49.296;6.900;2023-11-18T14:36:37;6.82;;;1.98;;
66567;SDS011;53422;49.296;6.900;2023-11-18T14:39:03;4.05;;;2.67;;
66567;SDS011;53422;49.296;6.900;2023-11-18T14:41:29;7.53;;;1.92;;
66567;SDS011;53422;49.296;6.900;2023-11-18T14:43:56;3.25;;;2.42;;
66567;SDS011;53422;49.296;6.900;2023-11-18T14:46:23;3.33;;;2.00;;
66567;SDS011;53422;49.296;6.900;2023-11-18T14:48:49;4.10;;;2.03;;
66567;SDS011;53422;49.296;6.900;2023-11-18T14:51:15;3.90;;;1.90;;
66567;SDS011;53422;49.296;6.900;2023-11-18T14:53:41;3.30;;;1.80;;
66567;SDS011;53422;49.296;6.900;2023-11-18T14:56:08;3.08;;;1.60;;
66567;SDS011;53422;49.296;6.900;2023-11-18T14:58:34;3.67;;;1.98;;
66567;SDS011;53422;49.296;6.900;2023-11-18T15:01:03;3.45;;;1.85;;
66567;SDS011;53422;49.296;6.900;2023-11-18T15:03:32;5.97;;;2.00;;
66567;SDS011;53422;49.296;6.900;2023-11-18T15:05:58;4.03;;;1.83;;
66567;SDS011;53422;49.296;6.900;2023-11-18T15:08:23;5.07;;;2.05;;
66567;SDS011;53422;49.296;6.900;2023-11-18T15:10:49;4.53;;;2.13;;
66567;SDS011;53422;49.296;6.900;2023-11-18T15:13:16;3.08;;;1.65;;
66567;SDS011;53422;49.296;6.900;2023-11-18T15:15:42;2.95;;;2.33;;
66567;SDS011;53422;49.296;6.900;2023-11-18T15:18:10;3.13;;;1.98;;
66567;SDS011;53422;49.296;6.900;2023-11-18T15:20:45;5.93;;;2.42;;
66567;SDS011;53422;49.296;6.900;2023-11-18T15:23:12;3.40;;;1.73;;
66567;SDS011;53422;49.296;6.900;2023-11-18T15:25:39;2.78;;;1.75;;
66567;SDS011;53422;49.296;6.900;2023-11-18T15:28:05;2.22;;;1.55;;
66567;SDS011;53422;49.296;6.900;2023-11-18T15:30:38;3.67;;;2.58;;
66567;SDS011;53422;49.296;6.900;2023-11-18T15:33:05;2.10;;;1.60;;
66567;SDS011;53422;49.296;6.900;2023-11-18T15:35:34;3.80;;;1.83;;